Terminal Aerodrome Forecast
Issued by NWS

Current Version | Previous Version | Text Only | Print | Product List | Glossary On
Versions: 1 2 3 4 5 6 7 8 9 10 11 12
679
FTUS45 KTFX 260542
TAFBZN
TAF
KBZN 260542Z 2606/2706 17006KT P6SM FEW120
     FM260800 VRB05KT P6SM SKC
     FM261800 36007KT P6SM SCT080
     FM262300 VRB06KT P6SM VCTS SCT060CB=

USA.gov is the U.S. government's official web portal to all federal, state and local government web resources and services.